Time;durP1;ratioP1;P1;durP2;ratioP2;P2;SDS_P1;SDS_P2;PMS_P1;PMS_P2;Temp;Humidity;BMP_temperature;BMP_pressure;BME280_temperature;BME280_humidity;BME280_pressure;Samples;Min_cycle;Max_cycle;Signal;HPM_P1;HPM_P2
2022/09/15 00:00:18;;;;;;;12.27;10.97;;;;;;;13.77;100.00;100609.22;5233303;28;20138;-74
2022/09/15 00:02:49;;;;;;;12.53;11.23;;;;;;;13.64;100.00;100623.31;5233886;28;20138;-74
2022/09/15 00:05:21;;;;;;;15.27;10.67;;;;;;;13.76;100.00;100624.19;5233533;28;20033;-73
2022/09/15 00:07:52;;;;;;;15.23;11.03;;;;;;;13.48;100.00;100605.22;5233620;28;20125;-73
2022/09/15 00:10:23;;;;;;;12.57;10.17;;;;;;;13.71;100.00;100618.44;5234269;28;20033;-73
2022/09/15 00:12:55;;;;;;;17.47;10.50;;;;;;;13.77;100.00;100617.94;5235113;28;20381;-73
2022/09/15 00:15:26;;;;;;;11.83;10.53;;;;;;;13.62;100.00;100611.22;5220512;28;20029;-73
2022/09/15 00:17:57;;;;;;;18.40;11.70;;;;;;;13.51;100.00;100615.50;5234128;28;20029;-73
2022/09/15 00:20:29;;;;;;;14.43;10.60;;;;;;;13.53;100.00;100624.13;5215585;28;20439;-73
2022/09/15 00:23:00;;;;;;;19.03;11.43;;;;;;;13.45;100.00;100625.66;5234605;28;20670;-73
2022/09/15 00:25:31;;;;;;;12.93;10.33;;;;;;;13.62;100.00;100627.00;5234203;28;20040;-73
2022/09/15 00:28:03;;;;;;;13.90;11.10;;;;;;;13.51;100.00;100610.22;5234080;28;20084;-73
2022/09/15 00:30:38;;;;;;;16.33;10.90;;;;;;;13.47;100.00;100619.31;5219767;28;20047;-73
2022/09/15 00:33:11;;;;;;;15.50;10.80;;;;;;;13.42;100.00;100610.94;5236095;28;20030;-73
2022/09/15 00:35:44;;;;;;;15.17;11.37;;;;;;;13.42;100.00;100611.75;5214791;28;20056;-73
2022/09/15 00:38:16;;;;;;;15.63;11.47;;;;;;;13.41;100.00;100609.25;5233606;28;20033;-73
2022/09/15 00:40:53;;;;;;;14.93;11.57;;;;;;;13.59;100.00;100607.06;5233885;28;20103;-74
2022/09/15 00:43:49;;;;;;;14.43;11.50;;;;;;;13.57;100.00;100603.69;5233429;28;20072;-73
2022/09/15 00:46:24;;;;;;;15.53;11.33;;;;;;;13.62;100.00;100603.34;5234234;28;20026;-74
2022/09/15 00:49:05;;;;;;;17.33;12.53;;;;;;;13.67;100.00;100609.09;5233107;28;20092;-73
2022/09/15 00:52:02;;;;;;;16.23;11.67;;;;;;;13.71;100.00;100607.06;5233316;28;20075;-74
2022/09/15 00:54:39;;;;;;;15.67;12.00;;;;;;;13.63;100.00;100608.47;5196068;28;20053;-73
2022/09/15 00:57:20;;;;;;;17.60;11.47;;;;;;;13.55;100.00;100616.97;5233902;28;20044;-73
2022/09/15 00:59:54;;;;;;;19.47;12.43;;;;;;;13.62;100.00;100605.97;5233999;28;20571;-74
2022/09/15 01:02:34;;;;;;;15.45;13.20;;;;;;;13.55;100.00;100609.09;5233380;28;20087;-73
2022/09/15 01:05:09;;;;;;;15.83;12.03;;;;;;;13.67;100.00;100609.09;5215254;28;20442;-74
2022/09/15 01:07:46;;;;;;;19.17;13.07;;;;;;;13.72;100.00;100622.72;5233470;28;20036;-74
2022/09/15 01:10:26;;;;;;;19.97;12.50;;;;;;;13.72;100.00;100611.38;5233446;28;20029;-73
2022/09/15 01:13:02;;;;;;;17.83;12.53;;;;;;;13.74;100.00;100615.56;5233658;28;20076;-74
2022/09/15 01:16:11;;;;;;;18.63;11.87;;;;;;;13.72;100.00;100606.94;5232799;28;20436;-74
2022/09/15 01:18:57;;;;;;;14.53;12.60;;;;;;;13.71;100.00;100605.28;5186860;28;20050;-73
2022/09/15 01:21:48;;;;;;;21.17;12.57;;;;;;;13.76;100.00;100599.63;5232659;28;20156;-74
2022/09/15 01:24:41;;;;;;;15.30;12.90;;;;;;;13.75;100.00;100609.31;5233170;28;20116;-74
2022/09/15 01:27:47;;;;;;;19.43;13.77;;;;;;;13.81;100.00;100609.84;5215275;28;20029;-73
2022/09/15 01:30:23;;;;;;;21.58;14.20;;;;;;;13.68;100.00;100608.16;5214676;28;20033;-73
2022/09/15 01:33:03;;;;;;;22.63;13.63;;;;;;;13.75;100.00;100611.94;5233584;28;20494;-72
2022/09/15 01:35:56;;;;;;;16.30;14.60;;;;;;;13.76;100.00;100605.75;5231942;28;20080;-73
2022/09/15 01:38:38;;;;;;;20.30;13.10;;;;;;;13.68;100.00;100613.41;5220035;28;20151;-73
2022/09/15 01:41:36;;;;;;;18.57;12.97;;;;;;;13.72;100.00;100608.75;5233071;28;20124;-73
2022/09/15 01:44:12;;;;;;;16.70;13.07;;;;;;;13.70;100.00;100610.66;5233478;28;20056;-73
2022/09/15 01:46:51;;;;;;;15.67;12.63;;;;;;;13.68;100.00;100610.78;5232234;28;20064;-73
2022/09/15 01:49:27;;;;;;;16.07;12.67;;;;;;;13.64;100.00;100606.69;5234255;28;20029;-71
2022/09/15 01:51:59;;;;;;;19.70;14.00;;;;;;;13.54;100.00;100606.56;5234474;28;20029;-74
2022/09/15 01:54:37;;;;;;;17.60;12.10;;;;;;;13.69;100.00;100599.28;5233101;28;20032;-73
2022/09/15 01:57:09;;;;;;;16.47;12.07;;;;;;;13.58;100.00;100615.06;5232510;28;20103;-72
2022/09/15 01:59:40;;;;;;;15.00;12.07;;;;;;;13.41;100.00;100615.38;5233119;28;20025;-73
2022/09/15 02:02:21;;;;;;;16.77;12.73;;;;;;;13.57;100.00;100610.75;5233114;28;20033;-74
2022/09/15 02:04:59;;;;;;;13.70;12.00;;;;;;;13.48;100.00;100615.72;5231973;28;20025;-72
2022/09/15 02:07:34;;;;;;;13.40;11.93;;;;;;;13.48;100.00;100612.25;5232194;28;20025;-73
2022/09/15 02:10:28;;;;;;;17.20;12.23;;;;;;;13.46;100.00;100601.84;5232586;28;20039;-73
2022/09/15 02:13:18;;;;;;;20.23;12.53;;;;;;;13.48;100.00;100604.34;5214521;28;20033;-72
2022/09/15 02:15:52;;;;;;;16.27;12.37;;;;;;;13.35;100.00;100602.69;5214377;28;20124;-72
2022/09/15 02:18:33;;;;;;;;;;;;;;;13.63;100.00;100608.47;5230934;28;20034;-72
2022/09/15 02:21:13;;;;;;;16.27;12.43;;;;;;;13.43;100.00;100602.94;5232058;28;19927;-72
2022/09/15 02:23:50;;;;;;;15.47;12.97;;;;;;;13.41;100.00;100604.00;5230669;28;20026;-72
2022/09/15 02:26:26;;;;;;;14.83;13.37;;;;;;;13.42;100.00;100595.16;5214319;28;20030;-72
2022/09/15 02:29:01;;;;;;;15.90;13.50;;;;;;;13.50;100.00;100602.44;5232727;28;20029;-71
2022/09/15 02:31:36;;;;;;;18.17;12.23;;;;;;;13.38;100.00;100598.97;5214179;28;20051;-72
2022/09/15 02:34:18;;;;;;;14.53;12.77;;;;;;;13.48;100.00;100599.94;5231523;28;20037;-72
2022/09/15 02:36:52;;;;;;;16.80;12.40;;;;;;;13.33;100.00;100601.09;5232292;28;20667;-73
2022/09/15 02:39:29;;;;;;;16.80;12.57;;;;;;;13.40;100.00;100597.06;5232034;28;20077;-72
2022/09/15 02:42:02;;;;;;;15.90;11.87;;;;;;;13.33;100.00;100607.22;5232242;28;20315;-72
2022/09/15 02:44:34;;;;;;;16.63;13.73;;;;;;;13.16;100.00;100605.88;5214718;28;20025;-72
2022/09/15 02:47:05;;;;;;;18.93;12.60;;;;;;;13.11;100.00;100605.38;5214284;28;20411;-72
2022/09/15 02:49:36;;;;;;;14.60;12.03;;;;;;;13.18;100.00;100606.56;5230910;28;20400;-72
2022/09/15 02:52:08;;;;;;;17.17;12.73;;;;;;;13.12;100.00;100607.03;5232533;28;20386;-73
2022/09/15 02:54:39;;;;;;;16.47;11.97;;;;;;;13.30;100.00;100607.44;5232332;28;20553;-72
2022/09/15 02:57:12;;;;;;;18.20;12.50;;;;;;;13.17;100.00;100597.00;5215446;28;20079;-72
2022/09/15 03:02:34;;;;;;;14.53;12.23;;;;;;;12.99;100.00;100605.31;5235537;28;20752;-72
2022/09/15 03:05:06;;;;;;;16.57;13.20;;;;;;;13.01;100.00;100610.44;5234462;28;20017;-72
2022/09/15 03:07:38;;;;;;;19.13;13.23;;;;;;;12.97;100.00;100617.72;5235740;28;20032;-72
2022/09/15 03:10:11;;;;;;;16.87;11.87;;;;;;;13.11;100.00;100615.88;5218521;28;20030;-73
2022/09/15 03:12:45;;;;;;;15.60;11.57;;;;;;;13.04;100.00;100615.47;5236175;28;20128;-72
2022/09/15 03:15:19;;;;;;;14.88;12.57;;;;;;;13.10;100.00;100611.56;5236190;28;20026;-73
2022/09/15 03:17:50;;;;;;;12.57;11.27;;;;;;;13.01;100.00;100618.34;5235662;28;20021;-73
2022/09/15 03:20:26;;;;;;;13.97;11.87;;;;;;;12.94;100.00;100623.22;5233784;28;20024;-72
2022/09/15 03:22:58;;;;;;;18.60;12.43;;;;;;;12.89;100.00;100615.69;5235746;28;20040;-73
2022/09/15 03:25:29;;;;;;;20.50;12.27;;;;;;;12.72;100.00;100637.94;5234326;28;20030;-73
2022/09/15 03:28:00;;;;;;;15.27;12.47;;;;;;;12.90;100.00;100625.22;5218006;28;20029;-72
2022/09/15 03:30:32;;;;;;;14.63;12.17;;;;;;;12.90;100.00;100629.63;5235227;28;20030;-72
2022/09/15 03:33:03;;;;;;;15.27;12.00;;;;;;;13.02;100.00;100626.09;5234685;28;20040;-72
2022/09/15 03:35:34;;;;;;;15.43;12.97;;;;;;;12.94;100.00;100633.72;5234723;28;20040;-72
2022/09/15 03:38:05;;;;;;;16.73;13.37;;;;;;;13.01;100.00;100632.34;5235607;28;20056;-72
2022/09/15 03:40:37;;;;;;;20.33;12.93;;;;;;;13.05;100.00;100636.41;5234686;28;20108;-72
2022/09/15 03:43:09;;;;;;;18.80;12.60;;;;;;;13.04;100.00;100639.97;5217479;28;20021;-72
2022/09/15 03:45:40;;;;;;;17.37;12.17;;;;;;;13.17;100.00;100639.06;5234879;28;20026;-72
2022/09/15 03:48:11;;;;;;;17.70;13.07;;;;;;;13.01;100.00;100639.38;5233598;28;20033;-71
2022/09/15 03:50:43;;;;;;;14.60;12.43;;;;;;;13.13;100.00;100635.00;5235179;28;20042;-72
2022/09/15 03:53:14;;;;;;;20.80;13.33;;;;;;;13.16;100.00;100640.03;5234926;28;20025;-73
2022/09/15 03:55:47;;;;;;;19.80;13.30;;;;;;;13.05;100.00;100646.09;5216889;28;20026;-72
2022/09/15 03:58:19;;;;;;;15.83;13.07;;;;;;;13.01;100.00;100634.97;5235267;28;20021;-73
2022/09/15 04:00:50;;;;;;;14.87;12.67;;;;;;;13.10;100.00;100637.84;5234299;28;20044;-72
2022/09/15 04:03:21;;;;;;;15.90;13.33;;;;;;;13.09;100.00;100636.19;5216309;28;20033;-73
2022/09/15 04:05:53;;;;;;;16.03;12.37;;;;;;;13.19;100.00;100635.38;5234068;28;20036;-72
2022/09/15 04:08:24;;;;;;;17.27;13.53;;;;;;;13.01;100.00;100639.38;5234087;28;20076;-73
2022/09/15 04:10:56;;;;;;;14.87;13.37;;;;;;;13.07;100.00;100634.50;5234795;28;20036;-73
2022/09/15 04:13:27;;;;;;;18.77;12.20;;;;;;;13.14;100.00;100639.31;5235045;28;20033;-71
2022/09/15 04:16:00;;;;;;;14.50;12.87;;;;;;;13.21;100.00;100634.44;5234893;28;20075;-73
2022/09/15 04:18:32;;;;;;;16.40;13.00;;;;;;;13.14;100.00;100636.69;5233359;28;20067;-72
2022/09/15 04:21:10;;;;;;;17.30;12.83;;;;;;;13.07;100.00;100631.88;5234755;28;20061;-73
2022/09/15 04:23:42;;;;;;;18.43;12.97;;;;;;;13.03;100.00;100638.31;5234046;28;20053;-72
2022/09/15 04:26:26;;;;;;;14.63;13.10;;;;;;;13.17;100.00;100637.28;5216764;28;20688;-73
2022/09/15 04:28:59;;;;;;;15.88;12.45;;;;;;;13.11;100.00;100636.91;5234623;28;20612;-72
2022/09/15 04:31:32;;;;;;;16.90;12.83;;;;;;;13.05;100.00;100631.16;5234379;28;20113;-72
2022/09/15 04:34:03;;;;;;;17.50;12.80;;;;;;;13.05;100.00;100625.91;5233862;28;20037;-73
2022/09/15 04:36:35;;;;;;;14.43;12.10;;;;;;;13.09;100.00;100628.31;5234427;28;20026;-72
2022/09/15 04:39:06;;;;;;;13.93;12.53;;;;;;;13.17;100.00;100636.44;5233777;28;20033;-72
2022/09/15 04:41:37;;;;;;;16.10;12.47;;;;;;;13.14;100.00;100628.78;5234062;28;20450;-72
2022/09/15 04:44:08;;;;;;;18.70;12.83;;;;;;;13.15;100.00;100636.56;5233885;28;20444;-72
2022/09/15 04:46:40;;;;;;;14.67;12.33;;;;;;;13.23;100.00;100641.25;5233710;28;20381;-73
2022/09/15 04:49:11;;;;;;;15.00;12.87;;;;;;;13.16;100.00;100632.16;5233067;28;20087;-73
2022/09/15 04:51:42;;;;;;;14.97;13.10;;;;;;;13.18;100.00;100641.59;5233541;28;20036;-71
2022/09/15 04:54:14;;;;;;;16.67;13.27;;;;;;;13.07;100.00;100634.50;5234089;28;20044;-73
2022/09/15 04:56:46;;;;;;;16.70;13.27;;;;;;;13.24;100.00;100639.47;5233568;28;20039;-72
2022/09/15 04:59:18;;;;;;;17.17;13.43;;;;;;;13.26;100.00;100641.03;5233080;28;20029;-72
2022/09/15 05:01:53;;;;;;;24.07;13.07;;;;;;;13.12;100.00;100638.59;5233749;28;20446;-73
2022/09/15 05:04:25;;;;;;;18.33;14.27;;;;;;;13.07;100.00;100645.00;5214980;28;20404;-72
2022/09/15 05:06:56;;;;;;;15.40;13.37;;;;;;;13.10;100.00;100651.00;5234091;28;20443;-73
2022/09/15 05:09:28;;;;;;;17.83;13.20;;;;;;;13.05;100.00;100643.47;5233025;28;20127;-72
2022/09/15 05:12:00;;;;;;;17.23;14.27;;;;;;;13.02;100.00;100636.63;5233493;28;20033;-73
2022/09/15 05:14:31;;;;;;;18.93;14.70;;;;;;;13.01;100.00;100631.47;5233001;28;20030;-73
2022/09/15 05:17:02;;;;;;;16.47;13.53;;;;;;;13.11;100.00;100639.53;5233755;28;20048;-72
2022/09/15 05:19:33;;;;;;;14.87;12.57;;;;;;;12.97;100.00;100628.25;5231487;28;20476;-72
2022/09/15 05:22:05;;;;;;;20.63;12.93;;;;;;;12.97;100.00;100628.25;5233597;28;20048;-73
2022/09/15 05:24:36;;;;;;;17.97;13.43;;;;;;;13.01;100.00;100629.69;5232573;28;20033;-73
2022/09/15 05:27:07;;;;;;;19.40;13.97;;;;;;;13.05;100.00;100631.16;5233321;28;20038;-72
2022/09/15 05:29:38;;;;;;;16.97;14.23;;;;;;;13.05;100.00;100631.16;5215264;28;20104;-72
2022/09/15 05:32:10;;;;;;;16.43;12.63;;;;;;;13.11;100.00;100639.53;5232557;28;20056;-72
2022/09/15 05:34:41;;;;;;;22.63;12.80;;;;;;;13.14;100.00;100634.06;5232264;28;20053;-71
2022/09/15 05:37:12;;;;;;;14.53;13.03;;;;;;;13.09;100.00;100637.00;5233219;28;20054;-73
2022/09/15 05:39:44;;;;;;;18.47;13.93;;;;;;;13.04;100.00;100639.97;5214487;28;20041;-71
2022/09/15 05:42:15;;;;;;;16.73;13.43;;;;;;;13.11;100.00;100655.31;5232156;28;20046;-73
2022/09/15 05:44:46;;;;;;;19.13;14.33;;;;;;;13.16;100.00;100648.75;5214772;28;20018;-72
2022/09/15 05:47:18;;;;;;;18.23;13.87;;;;;;;13.14;100.00;100652.47;5232799;28;20036;-74
2022/09/15 05:49:49;;;;;;;15.57;14.07;;;;;;;13.19;100.00;100659.03;5231959;28;20064;-74
2022/09/15 05:52:21;;;;;;;17.17;13.43;;;;;;;13.21;100.00;100658.94;5231744;28;20029;-75
2022/09/15 05:54:52;;;;;;;15.90;13.67;;;;;;;13.22;100.00;100657.97;5231851;28;20701;-74
2022/09/15 05:57:23;;;;;;;19.93;14.87;;;;;;;13.24;100.00;100671.00;5232074;28;20018;-74
2022/09/15 05:59:54;;;;;;;23.70;14.07;;;;;;;13.36;100.00;100669.25;5232105;28;20033;-76
2022/09/15 06:02:26;;;;;;;16.93;14.20;;;;;;;13.39;100.00;100675.13;5231166;28;20126;-75
2022/09/15 06:04:57;;;;;;;22.90;14.53;;;;;;;13.45;100.00;100675.63;5214112;28;20021;-75
2022/09/15 06:07:28;;;;;;;16.50;14.67;;;;;;;13.31;100.00;100674.88;5213925;28;20025;-75
2022/09/15 06:09:59;;;;;;;16.17;14.47;;;;;;;13.46;100.00;100672.88;5231658;28;20044;-75
2022/09/15 06:12:31;;;;;;;16.67;14.97;;;;;;;13.39;100.00;100672.50;5231423;28;20025;-75
2022/09/15 06:15:02;;;;;;;17.67;15.60;;;;;;;13.49;100.00;100685.78;5231089;28;20033;-73
2022/09/15 06:17:33;;;;;;;18.30;15.97;;;;;;;13.47;100.00;100682.47;5228149;28;20038;-76
2022/09/15 06:20:06;;;;;;;17.77;14.57;;;;;;;13.56;100.00;100686.22;5232192;28;20091;-75
2022/09/15 06:22:38;;;;;;;19.20;15.10;;;;;;;13.50;100.00;100692.75;5200979;28;20034;-75
2022/09/15 06:25:10;;;;;;;19.03;14.30;;;;;;;13.54;100.00;100688.13;5234706;28;20048;-73
2022/09/15 06:27:41;;;;;;;16.60;14.90;;;;;;;13.59;100.00;100690.41;5232127;28;20112;-78
2022/09/15 06:30:13;;;;;;;23.60;15.30;;;;;;;13.70;100.00;100700.13;5214704;28;20041;-78
2022/09/15 06:32:44;;;;;;;21.50;15.13;;;;;;;13.73;100.00;100698.09;5230553;28;20048;-75
2022/09/15 06:35:16;;;;;;;21.70;15.10;;;;;;;13.74;100.00;100699.78;5231953;28;20029;-77
2022/09/15 06:37:47;;;;;;;23.70;13.63;;;;;;;13.82;100.00;100699.22;5204253;28;20026;-73
2022/09/15 06:40:18;;;;;;;20.33;14.50;;;;;;;13.86;100.00;100698.00;5229833;28;20156;-75
2022/09/15 06:42:54;;;;;;;18.63;14.43;;;;;;;13.95;100.00;100707.00;5207678;28;20041;-75
2022/09/15 06:45:26;;;;;;;20.27;15.00;;;;;;;13.95;100.00;100700.88;5203182;28;20026;-76
2022/09/15 06:47:57;;;;;;;21.87;15.10;;;;;;;13.93;100.00;100703.63;5212933;28;20488;-74
2022/09/15 06:50:29;;;;;;;23.77;14.80;;;;;;;13.98;100.00;100700.66;5211299;28;20507;-75
2022/09/15 06:53:01;;;;;;;16.43;14.67;;;;;;;13.99;100.00;100707.59;5213334;28;20026;-75
2022/09/15 06:55:32;;;;;;;19.83;14.27;;;;;;;13.95;100.00;100701.72;5231044;28;20037;-77
2022/09/15 06:58:03;;;;;;;17.77;14.10;;;;;;;14.02;100.00;100716.09;5231863;28;20021;-78
2022/09/15 07:00:35;;;;;;;25.73;15.07;;;;;;;13.99;100.00;100713.72;5214051;28;20499;-78
2022/09/15 07:03:06;;;;;;;19.03;15.53;;;;;;;14.08;100.00;100727.97;5230478;28;20516;-78
2022/09/15 07:05:37;;;;;;;19.67;14.67;;;;;;;14.12;100.00;100712.78;5231753;28;20030;-75
2022/09/15 07:08:08;;;;;;;18.90;13.37;;;;;;;14.33;100.00;100730.50;5214247;28;20250;-78
2022/09/15 07:10:43;;;;;;;15.23;13.10;;;;;;;14.32;100.00;100724.38;5232031;28;20025;-78
2022/09/15 07:13:14;;;;;;;17.95;13.25;;;;;;;14.44;100.00;100732.28;5231383;28;20558;-74
2022/09/15 07:15:54;;;;;;;16.67;13.40;;;;;;;14.51;100.00;100723.78;5231126;28;20025;-76
2022/09/15 07:18:26;;;;;;;20.47;13.47;;;;;;;14.57;100.00;100738.28;5229864;28;20116;-78
2022/09/15 07:20:59;;;;;;;19.53;13.33;;;;;;;14.56;100.00;100735.72;5231807;28;20032;-75
2022/09/15 07:23:32;;;;;;;19.07;13.67;;;;;;;14.48;100.00;100750.38;5213929;28;20029;-74
2022/09/15 07:26:17;;;;;;;18.40;12.57;;;;;;;14.63;100.00;100742.19;5231697;28;20041;-74
2022/09/15 07:29:15;;;;;;;24.03;13.00;;;;;;;14.80;100.00;100748.75;5213799;28;20120;-74
2022/09/15 07:31:46;;;;;;;17.80;11.70;;;;;;;14.68;100.00;100733.94;5210676;28;20048;-73
2022/09/15 07:34:18;;;;;;;19.73;13.30;;;;;;;14.76;100.00;100740.28;5230178;28;20021;-73
2022/09/15 07:36:49;;;;;;;21.47;11.60;;;;;;;14.87;100.00;100743.91;5214046;28;20048;-74
2022/09/15 07:39:20;;;;;;;17.23;11.07;;;;;;;14.88;100.00;100745.56;5212947;28;20057;-74
2022/09/15 07:41:51;;;;;;;13.90;11.87;;;;;;;14.93;100.00;100759.22;5213710;28;20029;-74
2022/09/15 07:44:23;;;;;;;21.97;11.13;;;;;;;14.91;100.00;100755.84;5232409;28;20448;-74
2022/09/15 07:46:54;;;;;;;16.03;11.63;;;;;;;14.93;100.00;100743.41;5235955;28;20464;-74
2022/09/15 07:49:25;;;;;;;16.63;10.83;;;;;;;15.08;100.00;100751.88;5234109;28;20057;-74
2022/09/15 07:51:57;;;;;;;16.73;11.17;;;;;;;15.11;100.00;100750.78;5235140;28;20029;-74
2022/09/15 07:54:28;;;;;;;11.70;10.23;;;;;;;15.21;100.00;100754.34;5217380;28;20040;-74
2022/09/15 07:56:59;;;;;;;14.23;9.67;;;;;;;15.16;100.00;100759.16;5235139;28;20071;-74
2022/09/15 07:59:30;;;;;;;14.63;10.23;;;;;;;15.18;100.00;100765.16;5217363;28;20099;-74
2022/09/15 08:02:02;;;;;;;16.40;10.57;;;;;;;15.14;100.00;100758.44;5234576;28;20105;-73
2022/09/15 08:04:33;;;;;;;11.27;9.10;;;;;;;15.14;100.00;100766.38;5233944;28;20087;-73
2022/09/15 08:07:04;;;;;;;14.33;8.77;;;;;;;15.14;100.00;100757.59;5235161;28;20040;-74
2022/09/15 08:09:37;;;;;;;16.57;9.97;;;;;;;15.19;100.00;100763.34;5234270;28;20079;-73
2022/09/15 08:12:08;;;;;;;13.53;10.43;;;;;;;15.30;100.00;100771.25;5234854;28;20030;-74
2022/09/15 08:14:39;;;;;;;19.17;9.77;;;;;;;15.38;100.00;100777.69;5233701;28;20036;-74
2022/09/15 08:17:10;;;;;;;16.53;9.17;;;;;;;15.28;100.00;100764.41;5234129;28;20033;-74
2022/09/15 08:19:42;;;;;;;16.20;9.00;;;;;;;15.28;100.00;100777.59;5234031;28;20033;-73
2022/09/15 08:22:13;;;;;;;15.97;9.23;;;;;;;15.41;100.00;100772.16;5234637;28;20037;-74
2022/09/15 08:24:44;;;;;;;13.47;8.87;;;;;;;15.40;100.00;100779.22;5234183;28;20025;-74
2022/09/15 08:27:15;;;;;;;14.90;10.10;;;;;;;15.44;100.00;100783.31;5216932;28;20103;-74
2022/09/15 08:29:47;;;;;;;13.17;9.37;;;;;;;15.53;100.00;100786.16;5234270;28;20025;-73
2022/09/15 08:32:18;;;;;;;15.50;9.30;;;;;;;15.62;100.00;100795.97;5233676;28;20021;-74
2022/09/15 08:34:50;;;;;;;12.33;9.27;;;;;;;15.54;100.00;100788.66;5234654;28;20101;-74
2022/09/15 08:37:21;;;;;;;14.13;9.17;;;;;;;15.62;100.00;100798.59;5233298;28;20077;-74
2022/09/15 08:39:53;;;;;;;12.03;7.87;;;;;;;15.57;100.00;100792.84;5233460;28;20049;-73
2022/09/15 08:42:25;;;;;;;11.93;7.80;;;;;;;15.53;100.00;100797.56;5216320;28;20610;-74
2022/09/15 08:45:16;;;;;;;17.57;8.80;;;;;;;15.59;100.00;100796.19;5234231;28;20112;-74
2022/09/15 08:47:54;;;;;;;12.53;8.47;;;;;;;15.55;100.00;100794.78;5232119;28;20175;-73
2022/09/15 08:50:30;;;;;;;14.47;9.93;;;;;;;15.62;100.00;100803.88;5233900;28;20400;-74
2022/09/15 08:53:05;;;;;;;15.47;10.57;;;;;;;15.62;100.00;100809.16;5233924;28;20030;-74
2022/09/15 08:55:48;;;;;;;20.70;9.23;;;;;;;15.66;100.00;100800.00;5233171;28;20041;-74
2022/09/15 08:58:29;;;;;;;11.43;9.57;;;;;;;15.73;100.00;100808.25;5233713;28;20060;-73
2022/09/15 09:01:09;;;;;;;15.63;9.27;;;;;;;15.63;100.00;100810.81;5216128;28;20357;-74
2022/09/15 09:04:11;;;;;;;15.33;9.13;;;;;;;15.73;100.00;100817.03;5214807;28;20041;-73
2022/09/15 09:06:58;;;;;;;17.77;9.47;;;;;;;15.75;100.00;100811.63;5233837;28;20030;-74
2022/09/15 09:09:37;;;;;;;11.93;8.27;;;;;;;15.83;100.00;100826.84;5233478;28;20033;-74
2022/09/15 09:12:28;;;;;;;16.60;9.20;;;;;;;15.85;100.00;100832.81;5233943;28;20036;-73
2022/09/15 09:15:35;;;;;;;12.80;8.53;;;;;;;16.00;100.00;100835.19;5216070;28;20040;-74
2022/09/15 09:18:22;;;;;;;15.47;7.97;;;;;;;16.07;100.00;100839.00;5215201;28;20476;-74
2022/09/15 09:20:59;;;;;;;14.97;8.70;;;;;;;16.11;100.00;100837.75;5215721;28;20029;-74
2022/09/15 09:23:32;;;;;;;13.40;7.23;;;;;;;16.10;100.00;100838.72;5233359;28;20025;-74
2022/09/15 09:26:03;;;;;;;13.03;6.70;;;;;;;16.15;100.00;100828.59;5233185;28;20519;-73
2022/09/15 09:28:41;;;;;;;16.67;6.70;;;;;;;16.28;100.00;100832.88;5233403;28;20163;-74
2022/09/15 09:31:20;;;;;;;10.27;5.90;;;;;;;16.33;100.00;100825.38;5233321;28;20052;-74
2022/09/15 09:34:23;;;;;;;10.20;5.63;;;;;;;16.33;100.00;100830.66;5214830;28;20065;-74
2022/09/15 09:36:58;;;;;;;8.80;4.53;;;;;;;16.34;100.00;100840.25;5214774;28;20048;-74
2022/09/15 09:39:30;;;;;;;8.90;5.97;;;;;;;16.28;100.00;100838.16;5232421;28;20081;-74
2022/09/15 09:42:04;;;;;;;8.83;4.87;;;;;;;16.32;100.00;100837.75;5232940;28;20060;-74
2022/09/15 09:44:36;;;;;;;16.92;6.00;;;;;;;16.27;100.00;100832.00;5232641;28;20769;-74
2022/09/15 09:47:07;;;;;;;11.70;5.50;;;;;;;16.34;100.00;100834.97;5232293;28;20029;-74
2022/09/15 09:49:47;;;;;;;10.90;6.10;;;;;;;16.33;100.00;100828.03;5232911;28;20025;-73
2022/09/15 09:52:35;;;;;;;12.97;5.57;;;;;;;16.28;100.00;100830.22;5232591;28;20048;-75
2022/09/15 09:55:21;;;;;;;11.67;5.50;;;;;;;16.36;100.00;100845.41;5232306;28;20409;-74
2022/09/15 09:57:53;;;;;;;10.83;5.27;;;;;;;16.27;100.00;100836.44;5233158;28;20151;-75
2022/09/15 10:00:39;;;;;;;10.03;4.90;;;;;;;16.34;100.00;100842.91;5232571;28;20029;-74
2022/09/15 10:03:11;;;;;;;11.57;5.50;;;;;;;16.24;100.00;100828.78;5231682;28;20473;-75
2022/09/15 10:05:44;;;;;;;8.50;4.93;;;;;;;16.14;100.00;100829.59;5232442;28;20552;-74
2022/09/15 10:08:18;;;;;;;7.43;4.77;;;;;;;16.20;100.00;100834.34;5214354;28;20021;-73
2022/09/15 10:10:57;;;;;;;8.35;4.93;;;;;;;16.11;100.00;100844.84;5232456;28;20362;-74
2022/09/15 10:13:28;;;;;;;9.77;5.40;;;;;;;16.14;100.00;100837.50;5214510;28;20113;-74
2022/09/15 10:16:02;;;;;;;16.07;5.73;;;;;;;16.13;100.00;100841.09;5232387;28;20100;-74
2022/09/15 10:18:35;;;;;;;;;;;;;;;16.38;100.00;100849.63;5231968;28;20029;-74
2022/09/15 10:21:08;;;;;;;10.73;6.13;;;;;;;16.13;100.00;100843.75;5232472;28;19928;-74
2022/09/15 10:23:42;;;;;;;15.93;6.67;;;;;;;16.06;100.00;100839.94;5232112;28;20109;-74
2022/09/15 10:26:32;;;;;;;11.90;6.53;;;;;;;16.24;100.00;100842.84;5231852;28;20033;-74
2022/09/15 10:29:15;;;;;;;9.13;4.40;;;;;;;16.19;100.00;100840.59;5214406;28;20511;-74
2022/09/15 10:31:46;;;;;;;6.30;3.47;;;;;;;16.17;100.00;100842.53;5232346;28;20141;-73
2022/09/15 10:34:25;;;;;;;10.80;4.47;;;;;;;16.22;100.00;100844.78;5230427;28;20045;-74
2022/09/15 10:37:06;;;;;;;9.73;4.73;;;;;;;16.23;100.00;100832.41;5232377;28;20787;-73
2022/09/15 10:39:37;;;;;;;10.27;4.10;;;;;;;16.18;100.00;100833.63;5231507;28;20585;-74
2022/09/15 10:42:24;;;;;;;10.50;3.83;;;;;;;16.29;100.00;100838.00;5232519;28;20041;-74
2022/09/15 10:45:24;;;;;;;7.70;3.13;;;;;;;16.39;100.00;100846.00;5231937;28;20022;-73
2022/09/15 10:48:07;;;;;;;9.53;3.73;;;;;;;16.37;100.00;100842.63;5201569;28;20500;-74
2022/09/15 10:51:28;;;;;;;8.03;2.50;;;;;;;16.40;100.00;100852.97;5213484;28;20029;-76
2022/09/15 10:54:21;;;;;;;5.60;2.40;;;;;;;16.47;100.00;100857.72;5209699;28;20133;-75
2022/09/15 10:57:00;;;;;;;7.03;2.27;;;;;;;16.29;100.00;100855.66;5231521;28;20515;-75
2022/09/15 10:59:48;;;;;;;6.47;2.03;;;;;;;16.30;100.00;100860.00;5228499;28;20167;-77
2022/09/15 11:02:45;;;;;;;5.03;1.90;;;;;;;16.40;100.00;100862.69;5223337;28;20033;-72
2022/09/15 11:05:31;;;;;;;8.47;1.90;;;;;;;16.41;100.00;100867.00;5222488;28;20080;-71
2022/09/15 11:08:24;;;;;;;5.93;1.77;;;;;;;16.31;100.00;100864.31;5215123;28;20606;-71
2022/09/15 11:10:55;;;;;;;6.90;2.00;;;;;;;16.35;100.00;100870.19;5232035;28;20025;-71
2022/09/15 11:14:06;;;;;;;7.83;1.63;;;;;;;16.43;100.00;100867.72;5232172;28;20048;-71
2022/09/15 11:17:02;;;;;;;2.87;1.30;;;;;;;16.64;100.00;100865.06;5228374;28;20396;-71
2022/09/15 11:19:50;;;;;;;3.07;1.03;;;;;;;16.86;100.00;100863.19;5202075;28;20041;-71
2022/09/15 11:22:35;;;;;;;4.10;1.20;;;;;;;16.88;100.00;100855.97;5241017;28;20029;-71
2022/09/15 11:25:20;;;;;;;3.47;0.87;;;;;;;16.86;100.00;100863.19;5237276;28;20575;-70
2022/09/15 11:27:58;;;;;;;4.60;0.87;;;;;;;16.90;100.00;100866.41;5236477;28;20029;-71
2022/09/15 11:30:40;;;;;;;3.87;1.37;;;;;;;16.97;100.00;100867.56;5235921;28;20567;-71
2022/09/15 11:33:24;;;;;;;2.63;1.30;;;;;;;17.00;100.00;100863.81;5234815;28;20640;-71
2022/09/15 11:36:13;;;;;;;4.60;1.15;;;;;;;17.21;100.00;100860.28;5217574;28;20044;-71
2022/09/15 11:38:53;;;;;;;5.43;0.97;;;;;;;17.32;100.00;100870.75;5234368;28;20021;-72
2022/09/15 11:41:33;;;;;;;6.17;1.70;;;;;;;17.42;100.00;100866.31;5236148;28;20240;-72
2022/09/15 11:44:23;;;;;;;4.77;1.60;;;;;;;17.45;100.00;100861.72;5232528;28;20076;-71
2022/09/15 11:47:03;;;;;;;2.83;0.80;;;;;;;17.37;100.00;100863.25;5218492;28;20030;-84